Campanya meteocatpedra

Dades EMA Vinyols i els Arcs

?
?
Resum diari 22:30 TU
Dades diàries de l'estació meteorològica
Temperatura mitjana 21.3 °C
Temperatura màxima 27.3 °C 13:26 TU
Temperatura mínima 14.3 °C 4:50 TU
Humitat relativa mitjana 65%
Precipitació acumulada 0.0 mm
Ratxa màxima del vent (2 m) 22.3 km/h - 169º 11:58 TU
Irradiació solar global 30.7 MJ/m2

El tram horari està expressat en Temps Universal (TU). Cal sumar una hora en horari d'hivern i dues en horari d'estiu per passar a l'hora oficial.

Vinyols i els Arcs

Metadades estació meteorol´gica
Municipi Vinyols i els Arcs
Comarca Baix Camp
Altitud 29 m
Data alta 17.05.1989
Estat actual Operativa
Dades de període
Període
TU
TM
°C
TX
°C
TN
°C
HRM
%
PPT
mm
VVM (2 m)
km/h
DVM (2 m)
graus
VVX (2 m)
km/h
RS
W/m2
00:00 - 00:30 16.3 16.3 16.0 78 0.0 1.8 316 5.4 0
00:30 - 01:00 16.0 16.1 15.8 78 0.0 2.2 321 5.0 0
01:00 - 01:30 15.9 16.0 15.9 77 0.0 2.5 333 6.8 0
01:30 - 02:00 15.8 16.0 15.4 77 0.0 1.8 332 6.8 0
02:00 - 02:30 15.3 15.7 15.0 79 0.0 1.4 346 6.5 0
02:30 - 03:00 15.4 15.5 15.3 78 0.0 0.7 346 3.2 0
03:00 - 03:30 15.6 15.7 15.4 77 0.0 1.8 328 5.8 0
03:30 - 04:00 15.8 15.9 15.5 76 0.0 1.8 331 5.8 0
04:00 - 04:30 15.0 15.5 14.4 80 0.0 0.7 334 5.0 1
04:30 - 05:00 14.5 14.7 14.3 83 0.0 0.0 359 1.8 19
05:00 - 05:30 16.0 17.4 14.8 78 0.0 0.4 325 4.3 84
05:30 - 06:00 18.0 19.1 17.5 71 0.0 2.2 324 4.7 172
06:00 - 06:30 20.4 21.4 19.2 63 0.0 1.1 320 4.7 270
06:30 - 07:00 22.5 23.7 21.4 55 0.0 1.4 269 5.4 374
07:00 - 07:30 23.8 24.6 23.1 52 0.0 2.9 219 7.2 473
07:30 - 08:00 25.0 25.6 24.1 50 0.0 4.0 189 9.7 572
08:00 - 08:30 25.2 25.6 24.6 49 0.0 6.1 178 12.2 660
08:30 - 09:00 25.3 25.8 24.8 49 0.0 6.5 166 11.9 738
09:00 - 09:30 25.0 25.8 24.2 51 0.0 6.8 176 13.0 808
09:30 - 10:00 25.2 25.8 24.5 54 0.0 7.2 162 12.6 867
10:00 - 10:30 25.8 26.5 24.8 52 0.0 6.5 186 15.5 913
10:30 - 11:00 25.6 25.9 25.3 52 0.0 7.6 181 16.2 947
11:00 - 11:30 25.1 25.5 24.6 57 0.0 8.3 186 19.1 966
11:30 - 12:00 25.0 25.2 24.5 58 0.0 11.5 171 22.3 971
12:00 - 12:30 25.5 26.1 24.9 55 0.0 10.1 170 20.2 965
12:30 - 13:00 26.0 27.1 25.1 51 0.0 9.0 178 21.6 949
13:00 - 13:30 26.9 27.3 26.3 44 0.0 9.0 174 18.7 921
13:30 - 14:00 25.5 26.1 25.1 55 0.0 8.6 189 18.0 878
14:00 - 14:30 25.0 25.9 24.3 62 0.0 8.6 191 18.4 826
14:30 - 15:00 25.1 25.6 24.7 60 0.0 9.7 191 20.5 761
15:00 - 15:30 25.4 26.2 25.0 54 0.0 8.6 187 20.5 687
15:30 - 16:00 25.6 25.9 25.2 48 0.0 8.6 186 18.0 603
16:00 - 16:30 25.9 26.4 25.3 46 0.0 7.2 178 16.9 512
16:30 - 17:00 25.0 25.9 24.3 50 0.0 7.9 183 17.3 415
17:00 - 17:30 24.0 24.6 23.6 58 0.0 8.3 182 17.3 315
17:30 - 18:00 23.7 23.9 23.5 62 0.0 6.1 179 13.3 217
18:00 - 18:30 23.5 23.8 23.1 62 0.0 4.3 173 11.2 127
18:30 - 19:00 22.4 23.0 21.6 69 0.0 3.2 170 10.1 46
19:00 - 19:30 21.4 21.6 21.2 73 0.0 1.4 250 7.9 6
19:30 - 20:00 20.3 21.3 19.3 77 0.0 0.4 331 3.2 0
20:00 - 20:30 18.4 19.2 17.9 84 0.0 0.4 5 3.2 0
20:30 - 21:00 18.0 18.6 17.4 86 0.0 0.0 300 1.1 0
21:00 - 21:30 17.1 17.4 16.9 88 0.0 0.7 3 3.2 0
21:30 - 22:00 16.5 17.1 16.0 89 0.0 0.4 354 3.6 0
22:00 - 22:30 15.7 16.3 15.4 91 0.0 0.4 345 2.9 0
22:30 - 23:00 (s/d) (s/d) (s/d) (s/d) (s/d) (s/d) (s/d) (s/d) (s/d)

Les dades en taronja només han passat un control de qualitat automàtic. Resta pendent la seva validació definitiva.